Time;durP1;ratioP1;P1;durP2;ratioP2;P2;SDS_P1;SDS_P2;PMS_P1;PMS_P2;Temp;Humidity;BMP_temperature;BMP_pressure;BME280_temperature;BME280_humidity;BME280_pressure;Samples;Min_cycle;Max_cycle;Signal;HPM_P1;HPM_P2
2022/06/23 00:01:51;;;;;;;4.40;1.90;;;;;12.30;97093.00;;;;110566;1253;41478;-65
2022/06/23 00:04:25;;;;;;;9.80;2.10;;;;;12.30;97093.20;;;;110456;1254;41803;-66
2022/06/23 00:07:11;;;;;;;5.40;2.20;;;;;12.40;97090.00;;;;110503;1254;41159;-65
2022/06/23 00:09:49;;;;;;;8.70;2.30;;;;;12.20;97088.00;;;;110469;1254;41536;-65
2022/06/23 00:12:19;;;;;;;3.90;1.80;;;;;12.20;97090.80;;;;110570;1254;41125;-66
2022/06/23 00:15:14;;;;;;;5.40;1.90;;;;;12.12;97091.00;;;;110478;1254;41220;-65
2022/06/23 00:17:49;;;;;;;2.60;1.60;;;;;12.10;97096.20;;;;110541;1254;41719;-65
2022/06/23 00:20:54;;;;;;;3.00;1.60;;;;;12.10;97099.60;;;;110533;1254;41144;-65
2022/06/23 00:23:27;;;;;;;5.10;1.90;;;;;12.00;97105.60;;;;110534;1253;41167;-65
2022/06/23 00:26:01;;;;;;;3.10;1.60;;;;;12.00;97104.40;;;;110558;1253;41472;-65
2022/06/23 00:28:41;;;;;;;3.10;1.70;;;;;11.90;97105.20;;;;110540;1254;41715;-66
2022/06/23 00:31:33;;;;;;;2.70;1.50;;;;;11.90;97099.40;;;;110475;1251;42395;-65
2022/06/23 00:34:13;;;;;;;5.60;2.00;;;;;11.90;97095.80;;;;110612;1254;41217;-64
2022/06/23 00:37:04;;;;;;;4.30;1.70;;;;;11.90;97097.60;;;;110554;1253;41173;-65
2022/06/23 00:39:37;;;;;;;3.30;1.60;;;;;11.80;97101.00;;;;110457;1254;42880;-66
2022/06/23 00:42:16;;;;;;;3.20;1.60;;;;;11.80;97094.60;;;;110486;1254;41570;-65
2022/06/23 00:44:51;;;;;;;7.30;2.00;;;;;11.80;97101.40;;;;110528;1254;41154;-65
2022/06/23 00:47:55;;;;;;;4.20;1.80;;;;;11.78;97093.20;;;;110483;1256;41952;-65
2022/06/23 00:50:48;;;;;;;5.00;1.90;;;;;11.70;97090.40;;;;110413;1254;41134;-65
2022/06/23 00:53:22;;;;;;;4.10;2.00;;;;;11.70;97091.40;;;;110435;1254;41974;-65
2022/06/23 00:56:02;;;;;;;5.90;2.10;;;;;11.50;97086.60;;;;110515;1254;41224;-65
2022/06/23 00:58:37;;;;;;;6.80;2.40;;;;;11.50;97080.80;;;;110590;1254;42094;-65
2022/06/23 01:01:21;;;;;;;3.90;1.90;;;;;11.40;97073.80;;;;110581;1254;42113;-65
2022/06/23 01:04:05;;;;;;;4.70;2.00;;;;;11.40;97067.40;;;;110388;1256;41265;-65
2022/06/23 01:06:42;;;;;;;4.00;1.80;;;;;11.34;97063.40;;;;110431;1254;41617;-66
2022/06/23 01:09:27;;;;;;;4.10;1.70;;;;;11.30;97063.80;;;;110454;1254;41261;-65
2022/06/23 01:12:03;;;;;;;5.50;1.90;;;;;11.30;97072.60;;;;110472;1254;41274;-65
2022/06/23 01:14:47;;;;;;;10.30;2.70;;;;;11.30;97072.80;;;;110565;1254;41158;-65
2022/06/23 01:17:39;;;;;;;6.70;2.40;;;;;11.30;97077.20;;;;110516;1254;41165;-65
2022/06/23 01:20:28;;;;;;;4.80;2.00;;;;;11.30;97077.20;;;;110479;1254;42396;-68
2022/06/23 01:23:03;;;;;;;5.90;2.20;;;;;11.30;97077.00;;;;110427;1254;41579;-65
2022/06/23 01:26:02;;;;;;;6.40;2.40;;;;;11.20;97075.60;;;;110539;1253;41271;-65
2022/06/23 01:28:38;;;;;;;6.20;2.60;;;;;11.20;97079.80;;;;110568;1253;41730;-65
2022/06/23 01:31:25;;;;;;;5.80;2.40;;;;;11.02;97074.80;;;;110337;1254;41361;-65
2022/06/23 01:34:18;;;;;;;8.50;2.80;;;;;11.00;97072.60;;;;110403;1255;41595;-65
2022/06/23 01:37:18;;;;;;;7.60;2.40;;;;;10.90;97079.80;;;;110538;1254;41757;-65
2022/06/23 01:39:53;;;;;;;7.70;2.40;;;;;10.60;97081.80;;;;110356;1253;41381;-65
2022/06/23 01:42:33;;;;;;;7.70;2.60;;;;;10.60;97080.80;;;;110621;1254;41248;-66
2022/06/23 01:45:14;;;;;;;6.30;2.60;;;;;10.52;97075.20;;;;110656;1253;41147;-64
2022/06/23 01:47:54;;;;;;;6.90;2.50;;;;;10.50;97076.00;;;;110670;1253;41145;-64
2022/06/23 01:50:50;;;;;;;6.40;2.60;;;;;10.34;97080.60;;;;110641;1253;42925;-65
2022/06/23 01:53:27;;;;;;;7.50;2.70;;;;;10.38;97070.60;;;;110492;1254;41161;-65
2022/06/23 01:56:07;;;;;;;10.80;3.40;;;;;10.40;97070.20;;;;110621;1253;41150;-65
2022/06/23 01:58:49;;;;;;;7.90;2.70;;;;;10.36;97071.00;;;;110600;1254;41131;-64
2022/06/23 02:01:32;;;;;;;6.90;2.60;;;;;10.40;97077.00;;;;110530;1254;42395;-65
2022/06/23 02:04:14;;;;;;;7.90;3.00;;;;;10.40;97076.00;;;;110514;1254;41253;-65
2022/06/23 02:06:54;;;;;;;8.20;2.60;;;;;10.40;97075.00;;;;110556;1253;41495;-66
2022/06/23 02:09:32;;;;;;;5.40;2.40;;;;;10.40;97074.40;;;;110537;1254;41170;-66
2022/06/23 02:12:04;;;;;;;5.80;2.50;;;;;10.50;97077.60;;;;110431;1255;41185;-65
2022/06/23 02:14:45;;;;;;;6.50;2.50;;;;;10.50;97082.60;;;;110457;1254;41365;-65
2022/06/23 02:17:37;;;;;;;8.00;2.50;;;;;10.50;97086.20;;;;110545;1254;41712;-65
2022/06/23 02:20:36;;;;;;;5.60;2.00;;;;;10.50;97087.60;;;;110487;1254;42520;-65
2022/06/23 02:23:09;;;;;;;6.00;2.30;;;;;10.50;97085.80;;;;110376;1255;41195;-65
2022/06/23 02:25:47;;;;;;;8.10;2.40;;;;;10.50;97080.80;;;;110462;1254;41594;-65
2022/06/23 02:28:35;;;;;;;6.30;2.50;;;;;10.50;97089.40;;;;110512;1253;41400;-64
2022/06/23 02:31:37;;;;;;;6.90;2.50;;;;;10.50;97090.20;;;;110520;1252;41543;-63
2022/06/23 02:34:15;;;;;;;5.80;2.50;;;;;10.50;97095.40;;;;110202;1254;42086;-64
2022/06/23 02:37:07;;;;;;;7.30;2.60;;;;;10.50;97098.60;;;;110348;1254;41886;-64
2022/06/23 02:39:53;;;;;;;5.70;2.30;;;;;10.48;97105.80;;;;110517;1253;41548;-65
2022/06/23 02:42:33;;;;;;;6.10;2.40;;;;;10.40;97105.80;;;;110393;1254;42383;-64
2022/06/23 02:45:21;;;;;;;7.60;2.80;;;;;10.40;97093.80;;;;110594;1253;41256;-64
2022/06/23 02:48:10;;;;;;;6.60;2.70;;;;;10.50;97100.00;;;;110437;1253;41148;-64
2022/06/23 02:51:18;;;;;;;11.80;3.10;;;;;10.50;97091.00;;;;110586;1253;41651;-65
2022/06/23 02:54:11;;;;;;;7.20;2.80;;;;;10.60;97090.00;;;;110678;1253;40750;-67
2022/06/23 02:57:07;;;;;;;6.50;3.00;;;;;10.40;97091.80;;;;110628;1253;41154;-65
2022/06/23 03:00:01;;;;;;;8.30;2.70;;;;;10.30;97089.40;;;;110525;1254;41897;-66
2022/06/23 03:02:56;;;;;;;5.80;2.50;;;;;10.40;97089.20;;;;110604;1253;41173;-65
2022/06/23 03:06:03;;;;;;;6.70;3.10;;;;;10.50;97085.80;;;;110561;1253;41839;-65
2022/06/23 03:08:44;;;;;;;7.90;3.20;;;;;10.50;97081.00;;;;110445;1253;41151;-65
2022/06/23 03:11:51;;;;;;;6.40;2.70;;;;;10.50;97085.80;;;;110537;1253;41156;-65
2022/06/23 03:14:23;;;;;;;6.50;2.70;;;;;10.60;97091.00;;;;110559;1254;41291;-65
2022/06/23 03:17:16;;;;;;;7.40;2.90;;;;;10.70;97095.60;;;;110633;1253;41147;-66
2022/06/23 03:20:33;;;;;;;9.10;2.50;;;;;10.80;97098.00;;;;110455;1254;41153;-65
2022/06/23 03:23:18;;;;;;;7.30;3.00;;;;;10.90;97102.00;;;;110477;1253;42381;-65
2022/06/23 03:25:57;;;;;;;6.40;2.70;;;;;10.90;97110.00;;;;110354;1254;41603;-63
2022/06/23 03:28:35;;;;;;;5.20;2.30;;;;;11.00;97118.80;;;;110557;1253;41170;-65
2022/06/23 03:31:23;;;;;;;6.60;2.50;;;;;11.10;97114.20;;;;110702;1252;42281;-67
2022/06/23 03:33:57;;;;;;;5.20;2.10;;;;;11.20;97115.40;;;;110611;1253;41189;-65
2022/06/23 03:37:05;;;;;;;8.20;2.50;;;;;11.30;97118.40;;;;110669;1253;41147;-65
2022/06/23 03:42:35;;;;;;;5.50;2.30;;;;;11.52;97123.00;;;;110053;1259;41477;-65
2022/06/23 03:45:14;;;;;;;6.40;2.30;;;;;11.60;97122.00;;;;110196;1258;41163;-64
2022/06/23 03:48:08;;;;;;;7.30;2.40;;;;;11.70;97121.00;;;;110185;1257;41190;-65
2022/06/23 03:50:46;;;;;;;5.30;2.20;;;;;11.80;97122.00;;;;110147;1257;40853;-65
2022/06/23 03:53:21;;;;;;;5.30;2.20;;;;;11.90;97126.60;;;;110261;1256;41623;-64
2022/06/23 03:55:55;;;;;;;5.00;2.00;;;;;12.00;97127.20;;;;110093;1257;41282;-65
2022/06/23 03:58:28;;;;;;;6.10;2.20;;;;;12.06;97121.20;;;;110135;1259;41694;-66
2022/06/23 04:01:07;;;;;;;7.60;2.60;;;;;12.10;97123.80;;;;110135;1259;41163;-65
2022/06/23 04:03:45;;;;;;;8.70;2.60;;;;;12.20;97128.20;;;;110112;1257;41643;-64
2022/06/23 04:06:30;;;;;;;6.70;2.50;;;;;12.30;97127.60;;;;110165;1257;41151;-64
2022/06/23 04:09:17;;;;;;;7.10;2.50;;;;;12.30;97125.00;;;;110136;1258;41158;-64
2022/06/23 04:11:48;;;;;;;8.40;2.60;;;;;12.40;97133.00;;;;110243;1257;41196;-65
2022/06/23 04:14:21;;;;;;;9.50;3.30;;;;;12.50;97139.00;;;;110134;1257;42222;-65
2022/06/23 04:16:57;;;;;;;7.80;2.40;;;;;12.60;97137.00;;;;110447;1253;41634;-64
2022/06/23 04:19:30;;;;;;;6.20;2.40;;;;;12.70;97141.40;;;;110468;1254;41148;-65
2022/06/23 04:22:08;;;;;;;7.50;2.10;;;;;12.90;97141.00;;;;110527;1254;41332;-64
2022/06/23 04:24:43;;;;;;;5.40;2.40;;;;;13.14;97142.80;;;;110672;1253;41206;-65
2022/06/23 04:27:19;;;;;;;10.50;2.90;;;;;13.70;97141.20;;;;110573;1252;41249;-65
2022/06/23 04:29:54;;;;;;;8.50;2.90;;;;;13.98;97139.40;;;;110490;1253;41162;-65
2022/06/23 04:32:30;;;;;;;6.90;2.50;;;;;14.30;97141.00;;;;110301;1254;41146;-65
2022/06/23 04:35:08;;;;;;;6.50;2.30;;;;;14.80;97140.40;;;;110510;1251;41621;-65
2022/06/23 04:37:49;;;;;;;6.00;2.30;;;;;15.00;97146.60;;;;110426;1254;41861;-65
2022/06/23 04:40:21;;;;;;;4.50;2.10;;;;;15.20;97141.20;;;;110348;1254;41292;-67
2022/06/23 04:42:59;;;;;;;6.80;2.30;;;;;15.54;97135.00;;;;110485;1254;42525;-65
2022/06/23 04:45:43;;;;;;;7.50;2.40;;;;;16.12;97118.20;;;;110519;1253;41320;-65
2022/06/23 04:48:19;;;;;;;5.20;2.30;;;;;16.96;97114.40;;;;110561;1253;41621;-66
2022/06/23 04:51:27;;;;;;;6.60;2.50;;;;;17.94;97114.60;;;;110557;1253;41158;-66
2022/06/23 04:54:09;;;;;;;9.30;2.50;;;;;18.84;97115.80;;;;110594;1253;41155;-66
2022/06/23 04:56:44;;;;;;;10.80;2.80;;;;;19.30;97115.20;;;;110732;1253;41140;-66
2022/06/23 04:59:22;;;;;;;7.50;2.80;;;;;19.42;97121.00;;;;110566;1253;41650;-65
2022/06/23 05:01:54;;;;;;;7.10;2.50;;;;;19.54;97122.80;;;;110628;1253;41265;-65
2022/06/23 05:04:37;;;;;;;14.20;2.80;;;;;19.70;97125.40;;;;110497;1254;41278;-65
2022/06/23 05:07:21;;;;;;;26.70;4.50;;;;;19.60;97127.60;;;;110511;1254;41252;-65
2022/06/23 05:09:52;;;;;;;14.00;3.40;;;;;19.46;97130.00;;;;110657;1253;42816;-65
2022/06/23 05:12:32;;;;;;;;;;;;;19.32;97125.80;;;;110651;1253;41175;-65
2022/06/23 05:15:24;;;;;;;17.20;3.20;;;;;19.08;97127.00;;;;110439;1253;42421;-65
2022/06/23 05:17:59;;;;;;;12.10;3.10;;;;;18.84;97131.20;;;;110429;1253;41463;-65
2022/06/23 05:20:40;;;;;;;10.80;3.50;;;;;18.56;97131.40;;;;110568;1253;41173;-66
2022/06/23 05:23:23;;;;;;;7.80;2.80;;;;;18.12;97133.80;;;;110498;1254;41195;-65
2022/06/23 05:25:56;;;;;;;7.90;3.00;;;;;17.80;97136.00;;;;110482;1253;41283;-65
2022/06/23 05:28:29;;;;;;;8.70;2.90;;;;;17.60;97132.80;;;;110723;1253;41268;-66
2022/06/23 05:31:04;;;;;;;10.10;2.90;;;;;17.40;97125.40;;;;110390;1253;41149;-66
2022/06/23 05:33:36;;;;;;;9.30;3.40;;;;;17.40;97128.20;;;;110516;1253;41277;-65
2022/06/23 05:36:24;;;;;;;6.90;2.60;;;;;17.30;97127.80;;;;110596;1253;41797;-66
2022/06/23 05:39:04;;;;;;;16.20;2.80;;;;;17.40;97131.20;;;;110624;1253;41150;-65
2022/06/23 05:41:38;;;;;;;24.50;3.10;;;;;17.50;97134.40;;;;110649;1252;41209;-65
2022/06/23 05:44:16;;;;;;;10.70;2.70;;;;;17.68;97129.40;;;;110564;1253;41730;-65
2022/06/23 05:46:47;;;;;;;9.20;2.70;;;;;17.82;97126.60;;;;110669;1253;41658;-65
2022/06/23 05:49:23;;;;;;;6.70;2.40;;;;;18.10;97120.00;;;;110380;1253;42334;-66
2022/06/23 05:51:59;;;;;;;5.40;2.20;;;;;18.40;97124.20;;;;110512;1255;41272;-66
2022/06/23 05:54:33;;;;;;;9.40;2.80;;;;;18.66;97130.40;;;;110597;1253;41266;-65
2022/06/23 05:57:13;;;;;;;6.50;2.70;;;;;18.86;97126.20;;;;110598;1253;42542;-65
2022/06/23 05:59:47;;;;;;;8.80;2.50;;;;;19.04;97122.80;;;;110621;1253;41730;-65
2022/06/23 06:02:29;;;;;;;6.50;2.50;;;;;19.00;97120.60;;;;110579;1253;41155;-65
2022/06/23 06:05:01;;;;;;;6.60;2.10;;;;;19.10;97122.00;;;;110658;1253;41230;-65
2022/06/23 06:07:40;;;;;;;8.70;2.00;;;;;19.30;97119.20;;;;110472;1254;41249;-66
2022/06/23 06:10:19;;;;;;;5.80;2.10;;;;;19.70;97117.80;;;;110366;1253;42093;-65
2022/06/23 06:12:50;;;;;;;5.60;2.10;;;;;20.16;97119.20;;;;110332;1254;41710;-64
2022/06/23 06:15:32;;;;;;;7.90;2.30;;;;;20.50;97117.60;;;;110401;1253;41258;-66
2022/06/23 06:18:11;;;;;;;9.00;2.40;;;;;20.70;97112.40;;;;110472;1253;41267;-66
2022/06/23 06:20:40;;;;;;;11.20;2.20;;;;;20.90;97119.40;;;;110394;1253;41391;-64
2022/06/23 06:23:27;;;;;;;4.20;2.00;;;;;20.92;97120.60;;;;110528;1253;41166;-65
2022/06/23 06:25:57;;;;;;;8.10;2.20;;;;;21.10;97121.80;;;;110639;1253;41130;-65
2022/06/23 06:28:32;;;;;;;6.50;2.30;;;;;21.30;97123.40;;;;110498;1253;42302;-65
2022/06/23 06:31:18;;;;;;;4.90;2.10;;;;;21.50;97126.40;;;;110493;1253;42077;-65
2022/06/23 06:34:05;;;;;;;7.80;2.00;;;;;21.70;97129.40;;;;110460;1253;41600;-66
2022/06/23 06:36:40;;;;;;;7.00;2.50;;;;;21.80;97131.40;;;;110712;1251;42058;-66
2022/06/23 06:39:21;;;;;;;11.40;2.40;;;;;21.80;97137.60;;;;110464;1253;41571;-65
2022/06/23 06:42:17;;;;;;;7.60;2.30;;;;;21.70;97142.60;;;;110592;1254;41570;-65
2022/06/23 06:44:50;;;;;;;5.30;2.30;;;;;21.76;97144.40;;;;110564;1253;41956;-65
2022/06/23 06:47:28;;;;;;;5.10;2.10;;;;;21.80;97145.20;;;;110618;1252;41632;-66
2022/06/23 06:50:02;;;;;;;6.70;2.10;;;;;21.84;97141.20;;;;110539;1253;41141;-66
2022/06/23 06:52:32;;;;;;;5.90;2.30;;;;;21.82;97149.40;;;;110676;1253;41173;-65
2022/06/23 06:55:13;;;;;;;9.60;2.80;;;;;21.56;97142.60;;;;110509;1253;41718;-65
2022/06/23 06:57:49;;;;;;;10.10;2.50;;;;;21.50;97138.60;;;;110390;1253;41183;-65
2022/06/23 07:00:24;;;;;;;6.90;2.60;;;;;21.70;97139.60;;;;110574;1253;41157;-65
2022/06/23 07:03:01;;;;;;;7.50;2.40;;;;;22.00;97143.40;;;;110492;1253;41185;-63
2022/06/23 07:05:50;;;;;;;8.80;2.20;;;;;22.42;97146.20;;;;110482;1253;41491;-66
2022/06/23 07:08:19;;;;;;;9.60;2.30;;;;;22.84;97142.00;;;;110558;1253;42404;-66
2022/06/23 07:10:57;;;;;;;9.50;2.50;;;;;23.00;97138.40;;;;110698;1252;42503;-66
2022/06/23 07:13:48;;;;;;;7.00;2.60;;;;;22.98;97144.00;;;;110583;1252;41265;-66
2022/06/23 07:16:31;;;;;;;6.60;2.40;;;;;22.70;97143.60;;;;110535;1253;41140;-66
2022/06/23 07:19:34;;;;;;;6.70;2.20;;;;;22.70;97142.60;;;;110599;1253;41249;-66
2022/06/23 07:22:08;;;;;;;8.60;2.40;;;;;22.30;97144.60;;;;110644;1253;41140;-66
2022/06/23 07:24:51;;;;;;;7.00;2.20;;;;;22.30;97149.80;;;;110636;1253;41615;-66
2022/06/23 07:27:56;;;;;;;13.60;3.50;;;;;22.40;97152.60;;;;110376;1252;397085;-66
2022/06/23 07:30:26;;;;;;;14.10;2.80;;;;;22.40;97155.80;;;;109888;1259;41179;-65
2022/06/23 07:33:04;;;;;;;5.90;2.40;;;;;22.50;97154.40;;;;109843;1260;41153;-67
2022/06/23 07:35:51;;;;;;;8.10;2.40;;;;;22.60;97155.80;;;;110100;1259;41921;-66
2022/06/23 07:38:25;;;;;;;8.60;2.20;;;;;22.70;97152.80;;;;110026;1259;41352;-66
2022/06/23 07:40:58;;;;;;;5.10;2.20;;;;;22.80;97155.60;;;;109877;1260;41189;-66
2022/06/23 07:43:32;;;;;;;5.80;2.00;;;;;22.76;97155.40;;;;110090;1258;41149;-66
2022/06/23 07:46:01;;;;;;;6.30;2.30;;;;;23.00;97156.20;;;;110093;1259;41167;-65
2022/06/23 07:48:33;;;;;;;7.60;2.90;;;;;23.10;97152.60;;;;109843;1260;41281;-65
2022/06/23 07:51:05;;;;;;;5.90;2.40;;;;;23.02;97152.80;;;;110069;1259;41257;-66
2022/06/23 07:53:39;;;;;;;4.60;2.20;;;;;22.90;97154.60;;;;110107;1259;41275;-66
2022/06/23 07:56:12;;;;;;;7.70;2.10;;;;;22.68;97156.60;;;;110104;1260;41271;-65
2022/06/23 07:58:42;;;;;;;4.80;2.10;;;;;23.00;97158.60;;;;109932;1259;41405;-65
2022/06/23 08:01:23;;;;;;;5.70;2.00;;;;;23.40;97158.20;;;;110119;1259;41992;-65
2022/06/23 08:04:03;;;;;;;4.70;2.10;;;;;23.84;97164.40;;;;110123;1259;41278;-66
2022/06/23 08:06:34;;;;;;;6.60;2.50;;;;;24.30;97166.20;;;;110222;1256;41250;-67
2022/06/23 08:09:17;;;;;;;5.10;2.00;;;;;24.60;97167.20;;;;110529;1253;41835;-66
2022/06/23 08:14:41;;;;;;;10.70;2.50;;;;;24.90;97161.60;;;;110337;1254;41151;-67
2022/06/23 08:17:15;;;;;;;7.40;2.30;;;;;25.10;97157.80;;;;110391;1252;41149;-65
2022/06/23 08:19:49;;;;;;;6.50;2.40;;;;;25.30;97151.20;;;;110678;1253;41756;-66
2022/06/23 08:22:39;;;;;;;5.50;2.00;;;;;25.50;97152.40;;;;110667;1252;41653;-65
2022/06/23 08:25:09;;;;;;;6.50;1.90;;;;;25.64;97154.60;;;;110481;1253;41153;-66
2022/06/23 08:27:53;;;;;;;4.90;1.90;;;;;25.80;97153.20;;;;110512;1252;41709;-65
2022/06/23 08:30:24;;;;;;;6.40;2.10;;;;;25.90;97148.00;;;;110471;1253;41136;-66
2022/06/23 08:32:55;;;;;;;6.30;2.40;;;;;26.00;97148.20;;;;110563;1252;41149;-67
2022/06/23 08:35:38;;;;;;;5.70;1.90;;;;;26.00;97149.20;;;;110704;1252;41854;-66
2022/06/23 08:38:23;;;;;;;4.70;1.60;;;;;26.10;97151.80;;;;110654;1253;41148;-65
2022/06/23 08:41:09;;;;;;;3.60;1.60;;;;;26.20;97149.00;;;;110354;1256;41172;-67
2022/06/23 08:44:01;;;;;;;5.70;1.80;;;;;26.40;97145.80;;;;110539;1253;41577;-66
2022/06/23 08:46:49;;;;;;;3.80;1.50;;;;;26.28;97146.00;;;;110686;1252;42631;-66
2022/06/23 08:49:44;;;;;;;4.60;1.40;;;;;26.50;97151.00;;;;110588;1253;41376;-66
2022/06/23 08:52:20;;;;;;;2.00;1.30;;;;;26.70;97154.40;;;;110699;1253;41225;-66
2022/06/23 08:55:02;;;;;;;2.90;1.30;;;;;26.84;97149.60;;;;110731;1252;42482;-67
2022/06/23 08:57:37;;;;;;;4.80;1.50;;;;;27.18;97148.40;;;;110564;1253;42229;-69
2022/06/23 09:00:25;;;;;;;4.20;1.30;;;;;27.30;97156.00;;;;110737;1253;42925;-66
2022/06/23 09:03:14;;;;;;;3.70;1.40;;;;;27.40;97161.40;;;;110380;1255;41170;-65
2022/06/23 09:05:52;;;;;;;3.40;1.50;;;;;27.70;97158.80;;;;110635;1252;41384;-66
2022/06/23 09:08:40;;;;;;;2.70;1.20;;;;;27.80;97154.40;;;;110513;1253;42380;-67
2022/06/23 09:11:43;;;;;;;3.70;1.60;;;;;28.10;97155.40;;;;110627;1252;42518;-65
2022/06/23 09:14:31;;;;;;;2.90;1.40;;;;;28.14;97156.80;;;;110505;1254;41146;-67
2022/06/23 09:17:21;;;;;;;2.90;1.30;;;;;28.44;97156.80;;;;110612;1253;41135;-68
2022/06/23 09:20:17;;;;;;;2.40;1.40;;;;;28.50;97155.80;;;;110622;1253;41255;-67
2022/06/23 09:23:21;;;;;;;2.40;1.50;;;;;28.86;97153.60;;;;110510;1254;41182;-67
2022/06/23 09:26:16;;;;;;;3.30;1.50;;;;;29.28;97145.80;;;;110707;1254;41366;-66
2022/06/23 09:28:58;;;;;;;2.80;1.20;;;;;30.06;97148.40;;;;110518;1253;41386;-66
2022/06/23 09:31:45;;;;;;;4.00;1.40;;;;;30.66;97137.40;;;;110511;1253;41264;-67
2022/06/23 09:34:36;;;;;;;4.30;1.40;;;;;31.38;97130.20;;;;110501;1252;42157;-68
2022/06/23 09:37:17;;;;;;;3.70;1.40;;;;;32.22;97131.20;;;;110403;1253;41160;-67
2022/06/23 09:40:09;;;;;;;1.90;1.40;;;;;32.90;97130.80;;;;110479;1253;41149;-68
2022/06/23 09:43:10;;;;;;;3.70;1.50;;;;;33.24;97124.00;;;;110756;1253;41157;-67
2022/06/23 09:45:39;;;;;;;3.00;1.40;;;;;32.88;97123.20;;;;110551;1255;41159;-66
2022/06/23 09:48:21;;;;;;;4.60;1.50;;;;;33.10;97115.60;;;;110800;1253;41165;-67
2022/06/23 09:51:27;;;;;;;3.10;1.40;;;;;31.04;97119.40;;;;110419;1255;41629;-67
2022/06/23 09:54:02;;;;;;;2.30;1.30;;;;;30.80;97128.40;;;;110247;1258;41183;-67
2022/06/23 09:56:47;;;;;;;5.70;1.30;;;;;30.80;97130.00;;;;110221;1257;41650;-66
2022/06/23 09:59:47;;;;;;;1.30;1.00;;;;;30.90;97133.40;;;;110344;1256;41426;-67
2022/06/23 10:02:24;;;;;;;2.80;1.40;;;;;30.88;97136.40;;;;110277;1256;41303;-67
2022/06/23 10:05:40;;;;;;;3.10;1.20;;;;;30.88;97141.40;;;;110277;1256;41678;-66
2022/06/23 10:08:31;;;;;;;2.30;1.20;;;;;30.96;97137.00;;;;109665;1262;41411;-67
2022/06/23 10:11:24;;;;;;;2.80;1.10;;;;;30.92;97131.40;;;;109649;1262;42041;-67
2022/06/23 10:14:05;;;;;;;4.20;1.40;;;;;31.58;97122.80;;;;109574;1262;41167;-66
2022/06/23 10:16:58;;;;;;;1.80;1.30;;;;;32.08;97127.80;;;;109594;1262;41131;-67
2022/06/23 10:19:52;;;;;;;4.80;1.40;;;;;32.40;97118.00;;;;109625;1262;41218;-67
2022/06/23 10:22:42;;;;;;;5.00;1.30;;;;;31.58;97117.40;;;;109633;1262;41619;-67
2022/06/23 10:25:20;;;;;;;2.50;1.20;;;;;31.74;97117.20;;;;109624;1262;41192;-67
2022/06/23 10:28:01;;;;;;;3.10;1.30;;;;;31.94;97130.60;;;;109587;1263;41738;-67
2022/06/23 10:30:29;;;;;;;1.90;1.20;;;;;31.86;97125.00;;;;109933;1259;41167;-66
2022/06/23 10:33:39;;;;;;;3.50;1.60;;;;;31.50;97121.80;;;;109924;1258;42388;-68
2022/06/23 10:36:32;;;;;;;2.30;1.30;;;;;31.50;97118.60;;;;110063;1260;41957;-68
2022/06/23 10:39:33;;;;;;;1.90;1.10;;;;;31.16;97121.40;;;;110045;1259;41421;-67
2022/06/23 10:42:10;;;;;;;3.00;1.50;;;;;30.98;97116.40;;;;110132;1256;41199;-65
2022/06/23 10:45:04;;;;;;;2.10;1.20;;;;;30.34;97111.00;;;;110348;1254;41158;-67
2022/06/23 10:47:55;;;;;;;4.40;1.40;;;;;29.70;97113.20;;;;110515;1253;41898;-67
2022/06/23 10:50:50;;;;;;;2.70;1.10;;;;;29.80;97118.20;;;;110455;1252;41640;-67
2022/06/23 10:53:43;;;;;;;3.00;1.20;;;;;30.00;97118.80;;;;110492;1254;41150;-67
2022/06/23 10:56:31;;;;;;;3.50;1.30;;;;;30.62;97119.00;;;;110497;1254;41158;-67
2022/06/23 10:59:18;;;;;;;1.80;1.20;;;;;30.72;97114.80;;;;110471;1253;41615;-67
2022/06/23 11:02:11;;;;;;;3.00;1.30;;;;;31.02;97117.20;;;;110495;1253;41916;-68
2022/06/23 11:04:43;;;;;;;1.80;1.10;;;;;31.68;97111.40;;;;110572;1253;41951;-67
2022/06/23 11:07:23;;;;;;;3.80;1.20;;;;;31.96;97115.60;;;;110506;1252;41284;-66
2022/06/23 11:10:10;;;;;;;4.60;1.20;;;;;32.44;97113.20;;;;110501;1253;41143;-67
2022/06/23 11:12:54;;;;;;;2.70;1.30;;;;;33.22;97116.00;;;;110509;1253;42051;-67
2022/06/23 11:16:04;;;;;;;1.30;1.00;;;;;34.06;97120.40;;;;110580;1254;41165;-68
2022/06/23 11:18:57;;;;;;;1.60;1.20;;;;;34.94;97108.40;;;;110529;1255;41594;-68
2022/06/23 11:21:36;;;;;;;3.10;1.20;;;;;35.38;97105.20;;;;110612;1253;41150;-67
2022/06/23 11:24:15;;;;;;;3.70;1.20;;;;;35.70;97105.60;;;;110543;1254;41373;-67
2022/06/23 11:27:06;;;;;;;2.20;0.90;;;;;35.74;97110.60;;;;110635;1254;41388;-68
2022/06/23 11:29:59;;;;;;;1.60;1.10;;;;;36.56;97109.80;;;;110649;1254;41157;-67
2022/06/23 11:32:40;;;;;;;3.50;1.00;;;;;36.60;97110.00;;;;110629;1253;41267;-67
2022/06/23 11:35:25;;;;;;;4.20;1.00;;;;;36.70;97110.40;;;;110593;1255;42283;-67
2022/06/23 11:38:23;;;;;;;1.80;1.10;;;;;36.50;97111.00;;;;110591;1253;41606;-67
2022/06/23 11:41:17;;;;;;;1.60;0.90;;;;;36.50;97105.80;;;;110685;1253;41278;-67
2022/06/23 11:44:11;;;;;;;1.50;0.90;;;;;36.80;97104.60;;;;110514;1254;41607;-66
2022/06/23 11:47:02;;;;;;;3.00;1.30;;;;;37.12;97096.20;;;;110561;1253;41138;-68
2022/06/23 11:49:37;;;;;;;2.20;0.80;;;;;36.18;97098.40;;;;110485;1253;41153;-67
2022/06/23 11:52:21;;;;;;;1.20;1.10;;;;;36.60;97091.00;;;;110575;1253;42003;-67
2022/06/23 11:55:12;;;;;;;3.40;1.10;;;;;36.20;97092.40;;;;110583;1253;41524;-67
2022/06/23 11:57:51;;;;;;;2.70;1.10;;;;;36.42;97095.00;;;;110608;1253;41131;-67
2022/06/23 12:00:27;;;;;;;2.00;1.00;;;;;36.60;97104.60;;;;110601;1254;41155;-67
2022/06/23 12:03:49;;;;;;;2.20;1.10;;;;;36.46;97103.00;;;;110620;1253;41156;-67
2022/06/23 12:06:26;;;;;;;2.90;1.40;;;;;36.00;97100.00;;;;110624;1253;41720;-67
2022/06/23 12:09:10;;;;;;;1.50;1.00;;;;;35.22;97095.00;;;;110431;1254;41149;-67
2022/06/23 12:11:40;;;;;;;2.50;1.00;;;;;34.30;97102.60;;;;110543;1253;41624;-67
2022/06/23 12:14:10;;;;;;;2.50;1.30;;;;;33.32;97108.40;;;;110397;1254;41712;-66
2022/06/23 12:16:45;;;;;;;1.50;1.10;;;;;32.64;97109.60;;;;110375;1253;41207;-67
2022/06/23 12:19:16;;;;;;;2.50;1.00;;;;;32.24;97112.20;;;;110442;1255;41149;-68
2022/06/23 12:22:08;;;;;;;2.80;1.10;;;;;31.90;97102.00;;;;110330;1254;42398;-67
2022/06/23 12:24:48;;;;;;;2.40;1.10;;;;;31.42;97108.80;;;;110451;1254;41155;-67
2022/06/23 12:27:25;;;;;;;;;;;;;31.20;97106.60;;;;110495;1254;41181;-66
2022/06/23 12:30:13;;;;;;;2.50;1.20;;;;;30.90;97101.00;;;;110543;1253;41152;-67
2022/06/23 12:32:54;;;;;;;2.90;1.20;;;;;30.26;97100.80;;;;110488;1253;41349;-67
2022/06/23 12:35:51;;;;;;;2.10;1.20;;;;;29.92;97098.40;;;;110461;1253;41183;-67
2022/06/23 12:38:26;;;;;;;1.20;1.10;;;;;29.00;97096.40;;;;110584;1253;42542;-67
2022/06/23 12:41:02;;;;;;;3.60;1.50;;;;;28.72;97105.60;;;;110552;1253;41161;-67
2022/06/23 12:43:45;;;;;;;1.70;1.20;;;;;28.80;97102.00;;;;110615;1254;41610;-67
2022/06/23 12:46:53;;;;;;;2.30;1.30;;;;;28.80;97102.20;;;;110639;1253;41159;-67
2022/06/23 12:49:44;;;;;;;3.30;1.30;;;;;28.90;97100.80;;;;110056;1259;42272;-67
2022/06/23 12:52:37;;;;;;;5.00;1.10;;;;;28.90;97093.80;;;;110600;1253;41510;-67
2022/06/23 12:55:33;;;;;;;2.60;1.40;;;;;28.98;97088.80;;;;110628;1253;41888;-67
2022/06/23 12:58:28;;;;;;;2.30;1.20;;;;;28.76;97090.20;;;;110583;1253;41692;-67
2022/06/23 13:01:12;;;;;;;3.30;1.20;;;;;28.80;97095.40;;;;110633;1254;42121;-67
2022/06/23 13:03:56;;;;;;;3.30;1.40;;;;;28.80;97099.00;;;;110601;1256;41337;-67
2022/06/23 13:06:46;;;;;;;2.00;1.30;;;;;28.80;97097.40;;;;110658;1253;41587;-67
2022/06/23 13:09:36;;;;;;;2.40;1.20;;;;;28.80;97097.60;;;;110500;1253;41507;-66
2022/06/23 13:12:43;;;;;;;1.80;1.20;;;;;28.78;97088.00;;;;110531;1253;41628;-67
2022/06/23 13:15:17;;;;;;;2.30;1.20;;;;;28.76;97088.80;;;;110434;1256;41136;-67
2022/06/23 13:17:46;;;;;;;2.50;1.30;;;;;28.80;97084.00;;;;110517;1253;41951;-67
2022/06/23 13:20:28;;;;;;;3.80;1.50;;;;;28.70;97089.40;;;;110535;1253;41179;-67
2022/06/23 13:23:08;;;;;;;3.10;1.40;;;;;28.70;97090.80;;;;110531;1253;41756;-68
2022/06/23 13:25:48;;;;;;;3.00;1.40;;;;;28.60;97095.80;;;;110459;1255;41183;-68
2022/06/23 13:28:23;;;;;;;2.80;1.30;;;;;28.60;97096.00;;;;110519;1253;42572;-68
2022/06/23 13:30:55;;;;;;;1.20;1.10;;;;;28.60;97092.60;;;;110558;1253;41151;-68
2022/06/23 13:33:54;;;;;;;2.90;1.30;;;;;28.66;97089.60;;;;110521;1253;41212;-67